• Join FlightAware (Why Join?)
  • Login
  • US Flag 
02:30PM EDT


 

Airport Tracker/Info


-or-


 

Live Flight TrackerFlight Track Log ✈ CSN6747 ✈ 09-May-2012 ✈ ZJSY / SYX - ZGGG / CAN

Flight Track Log - Related Links

Times and Time Zones

All times are in EDT time to prevent confusion due to time zone crossing. See the CSN6747 flight status page for this flight to view local times or setup timezone preferences in your user account.

Time Position Orientation Groundspeed Altitude Reporting Facility
EDT Latitude Longitude Course Direction KTS MPH feet Rate Location/Type
10:39PM 20.1826 110.8099 35° Northeast  Level Estimated
10:40PM 20.2623 110.8700 35° Northeast  Level Estimated
10:41PM 20.3419 110.9302 35° Northeast  Level Estimated
10:42PM 20.4215 110.9904 35° Northeast  Level Estimated
10:43PM 20.5011 111.0507 35° Northeast  Level Estimated
10:44PM 20.5806 111.1111 35° Northeast  Level Estimated
10:45PM 20.6601 111.1715 35° Northeast  Level Estimated
10:46PM 20.7397 111.2320 35° Northeast  Level Estimated
10:47PM 20.8191 111.2925 35° Northeast  Level Estimated
10:48PM 20.8986 111.3531 35° Northeast  Level Estimated
10:49PM 20.9781 111.4138 36° Northeast  Level Estimated
10:50PM 21.0575 111.4746 36° Northeast  Level Estimated
10:51PM 21.1369 111.5354 36° Northeast  Level Estimated
10:52PM 21.2163 111.5962 36° Northeast  Level Estimated
10:53PM 21.2956 111.6572 36° Northeast  Level Estimated
10:54PM 21.3750 111.7182 36° Northeast  Level Estimated
10:55PM 21.4543 111.7793 36° Northeast  Level Estimated
10:56PM 21.5336 111.8404 36° Northeast  Level Estimated
10:57PM 21.6129 111.9016 36° Northeast  Level Estimated
10:58PM 21.6921 111.9629 36° Northeast  Level Estimated
10:59PM 21.7713 112.0242 36° Northeast  Level Estimated
11:00PM 21.8505 112.0856 36° Northeast  Level Estimated
11:01PM 21.9297 112.1471 36° Northeast  Level Estimated
11:02PM 22.0089 112.2086 36° Northeast  Level Estimated
11:03PM 22.0880 112.2703 36° Northeast  Level Estimated
11:04PM 22.1671 112.3319 36° Northeast  Level Estimated
11:05PM 22.2462 112.3937 36° Northeast  Level Estimated
11:06PM 22.3253 112.4555 36° Northeast  Level Estimated
11:07PM 22.4043 112.5174 36° Northeast  Level Estimated
11:08PM 22.4833 112.5794 36° Northeast  Level Estimated
11:09PM 22.5623 112.6414 36° Northeast  Level Estimated
11:10PM 22.6413 112.7035 36° Northeast  Level Estimated
11:11PM 22.7202 112.7657 36° Northeast  Level Estimated
11:12PM 22.7992 112.8279 36° Northeast  Level Estimated
11:13PM 22.8781 112.8903 36° Northeast  Level Estimated
11:14PM 22.9569 112.9526 36° Northeast  Level Estimated
11:15PM 23.0358 113.0151 36° Northeast  Level Estimated
11:16PM 23.1146 113.0776 36° Northeast  Level Estimated
11:17PM 23.1934 113.1403 36° Northeast  Level Estimated
11:18PM 23.2722 113.2029 36° Northeast  Level Estimated
11:19PM 23.3510 113.2657 36° Northeast  Level Estimated
11:20PM 23.4297 113.3285 216° Southwest  Level Estimated
11:21PM 23.3510 113.2657 36° Northeast  Level Estimated
11:22PM 23.4297 113.3285 216° Southwest  Level Estimated
11:23PM 23.3510 113.2657 36° Northeast  Level Estimated
11:24PM 23.4297 113.3285 216° Southwest  Level Estimated
11:25PM 23.3510 113.2657 36° Northeast  Level Estimated
11:26PM 23.4297 113.3285 216° Southwest  Level Estimated
11:27PM 23.3510 113.2657 36° Northeast  Level Estimated
11:28PM 23.4297 113.3285 216° Southwest  Level Estimated
11:29PM 23.3510 113.2657 36° Northeast  Level Estimated
11:30PM 23.4297 113.3285 216° Southwest  Level Estimated
11:31PM 23.3510 113.2657 36° Northeast  Level Estimated
11:32PM 23.4297 113.3285 216° Southwest  Level Estimated
11:33PM 23.3510 113.2657 36° Northeast  Level Estimated
11:34PM 23.4297 113.3285 216° Southwest  Level Estimated
11:35PM 23.3510 113.2657 216° Southwest  Level Estimated